createdAt,value
2022-08-26T00:00:47.955Z,37.55
2022-08-26T00:01:57.134Z,37.58
2022-08-26T00:03:06.054Z,37.57
2022-08-26T00:04:15.184Z,37.58
2022-08-26T00:05:22.985Z,37.79
2022-08-26T00:06:32.828Z,37.83
2022-08-26T00:07:40.602Z,37.93
2022-08-26T00:08:54.651Z,37.73
2022-08-26T00:10:02.960Z,37.53
2022-08-26T00:11:10.380Z,37.34
2022-08-26T00:12:21.586Z,37.27
2022-08-26T00:13:49.453Z,37.31
2022-08-26T00:14:56.866Z,37.32
2022-08-26T00:16:05.381Z,37.25
2022-08-26T00:17:14.190Z,37.14
2022-08-26T00:18:24.167Z,36.96
2022-08-26T00:19:36.476Z,36.93
2022-08-26T00:20:46.196Z,37.04
2022-08-26T00:21:57.098Z,37.10
2022-08-26T00:23:06.833Z,37.17
2022-08-26T00:24:15.060Z,36.92
2022-08-26T00:25:23.598Z,36.87
2022-08-26T00:26:32.139Z,37.07
2022-08-26T00:27:41.193Z,36.99
2022-08-26T00:28:49.504Z,36.84
2022-08-26T00:29:57.591Z,36.91
2022-08-26T00:31:06.225Z,36.63
2022-08-26T00:32:15.482Z,36.61
2022-08-26T00:33:24.941Z,36.64
2022-08-26T00:34:36.052Z,36.58
2022-08-26T00:35:47.038Z,36.61
2022-08-26T00:36:54.816Z,36.83
2022-08-26T00:38:03.072Z,36.76
2022-08-26T00:39:12.563Z,36.81
2022-08-26T00:40:24.391Z,36.77
2022-08-26T00:41:36.938Z,36.55
2022-08-26T00:42:46.015Z,36.48
2022-08-26T00:43:54.659Z,36.40
2022-08-26T00:45:10.259Z,36.36
2022-08-26T00:46:30.904Z,36.25
2022-08-26T00:47:47.501Z,36.23
2022-08-26T00:49:01.728Z,36.45
2022-08-26T00:50:14.858Z,36.67
2022-08-26T00:51:29.766Z,36.52
2022-08-26T00:52:40.103Z,36.48
2022-08-26T00:54:14.466Z,36.36
2022-08-26T00:55:43.085Z,36.15
2022-08-26T00:57:02.889Z,36.03
2022-08-26T00:58:12.491Z,35.94
2022-08-26T00:59:22.715Z,35.73
2022-08-26T01:00:32.588Z,35.53
2022-08-26T01:01:42.012Z,35.50
2022-08-26T01:02:50.291Z,35.73
2022-08-26T01:03:58.047Z,35.85
2022-08-26T01:05:08.230Z,35.65
2022-08-26T01:06:19.169Z,35.62
2022-08-26T01:07:30.038Z,35.59
2022-08-26T01:08:39.016Z,35.48
2022-08-26T01:09:46.460Z,35.51
2022-08-26T01:10:56.735Z,35.39
2022-08-26T01:12:05.032Z,35.41
2022-08-26T01:13:12.773Z,35.39
2022-08-26T01:14:22.007Z,35.37
2022-08-26T01:15:45.518Z,35.27
2022-08-26T01:16:56.436Z,35.11
2022-08-26T01:18:07.560Z,35.08
2022-08-26T01:19:37.671Z,35.07
2022-08-26T01:21:07.580Z,35.05
2022-08-26T01:22:26.596Z,34.96
2022-08-26T01:23:39.752Z,34.81
2022-08-26T01:24:49.800Z,34.80
2022-08-26T01:25:59.695Z,34.74
2022-08-26T01:27:10.433Z,34.73
2022-08-26T01:28:26.059Z,34.72
2022-08-26T01:29:36.496Z,34.75
2022-08-26T01:30:44.352Z,34.64
2022-08-26T01:31:56.426Z,34.59
2022-08-26T01:33:04.739Z,34.50
2022-08-26T01:34:20.341Z,34.37
2022-08-26T01:35:31.647Z,34.24
2022-08-26T01:36:40.663Z,34.20
2022-08-26T01:37:50.533Z,34.12
2022-08-26T01:39:02.236Z,34.08
2022-08-26T01:40:17.975Z,34.10
2022-08-26T01:41:29.170Z,33.93
2022-08-26T01:42:37.257Z,33.84
2022-08-26T01:43:48.512Z,33.69
2022-08-26T01:45:00.945Z,33.51
2022-08-26T01:46:09.159Z,33.38
2022-08-26T01:47:17.801Z,33.28
2022-08-26T01:48:30.407Z,33.18
2022-08-26T01:49:38.096Z,33.07
2022-08-26T01:50:45.397Z,32.95
2022-08-26T01:51:53.981Z,32.78
2022-08-26T01:53:05.306Z,32.61
2022-08-26T01:54:13.829Z,32.43
2022-08-26T01:55:32.146Z,32.29
2022-08-26T01:56:43.277Z,32.10
2022-08-26T01:57:56.253Z,31.92
2022-08-26T01:59:06.783Z,31.80
2022-08-26T02:00:16.227Z,31.70
2022-08-26T02:01:24.832Z,31.60
2022-08-26T02:02:37.467Z,31.47
2022-08-26T02:03:53.947Z,31.36
2022-08-26T02:05:04.146Z,31.21
2022-08-26T02:06:12.091Z,31.06
2022-08-26T02:07:26.653Z,30.91
2022-08-26T02:08:48.494Z,30.81
2022-08-26T02:09:58.219Z,30.66
2022-08-26T02:11:05.977Z,30.51
2022-08-26T02:12:14.642Z,30.37
2022-08-26T02:13:23.661Z,30.24
2022-08-26T02:14:43.740Z,30.13
2022-08-26T02:15:52.848Z,29.98
2022-08-26T02:17:00.098Z,29.88
2022-08-26T02:18:09.558Z,29.78
2022-08-26T02:19:32.367Z,29.66
2022-08-26T02:20:40.327Z,29.54
2022-08-26T02:21:51.275Z,29.46
2022-08-26T02:22:59.762Z,29.36
2022-08-26T02:24:12.775Z,29.28
2022-08-26T02:25:42.781Z,29.20
2022-08-26T02:26:52.523Z,29.10
2022-08-26T02:28:00.051Z,29.04
2022-08-26T02:29:19.541Z,28.97
2022-08-26T02:30:33.312Z,28.90
2022-08-26T02:31:42.368Z,28.83
2022-08-26T02:32:52.668Z,28.79
2022-08-26T02:34:21.576Z,28.73
2022-08-26T02:35:29.986Z,28.66
2022-08-26T02:36:38.179Z,28.62
2022-08-26T02:37:52.441Z,28.58
2022-08-26T02:39:01.572Z,28.54
2022-08-26T02:40:13.950Z,28.50
2022-08-26T02:41:27.847Z,28.45
2022-08-26T02:42:40.124Z,28.40
2022-08-26T02:43:51.776Z,28.36
2022-08-26T02:45:01.725Z,28.31
2022-08-26T02:46:11.634Z,28.28
2022-08-26T02:47:35.448Z,28.26
2022-08-26T02:48:45.852Z,28.23
2022-08-26T02:49:56.883Z,28.19
2022-08-26T02:51:08.181Z,28.17
2022-08-26T02:52:15.947Z,28.14
2022-08-26T02:53:28.260Z,28.12
2022-08-26T02:54:41.127Z,28.09
2022-08-26T02:55:51.004Z,28.05
2022-08-26T02:56:58.442Z,28.02
2022-08-26T02:58:07.993Z,27.99
2022-08-26T02:59:16.935Z,27.97
2022-08-26T03:00:26.543Z,27.95
2022-08-26T03:01:37.985Z,27.91
2022-08-26T03:02:46.371Z,27.89
2022-08-26T03:03:54.331Z,27.86
2022-08-26T03:05:02.378Z,27.84
2022-08-26T03:06:11.037Z,27.82
2022-08-26T03:07:19.417Z,27.78
2022-08-26T03:08:30.238Z,27.75
2022-08-26T03:09:38.917Z,27.73
2022-08-26T03:10:50.799Z,27.70
2022-08-26T03:11:58.294Z,27.66
2022-08-26T03:13:07.865Z,27.63
2022-08-26T03:14:18.812Z,27.61
2022-08-26T03:15:28.214Z,27.58
2022-08-26T03:16:43.114Z,27.55
2022-08-26T03:17:50.870Z,27.53
2022-08-26T03:18:58.731Z,27.51
2022-08-26T03:20:11.169Z,27.50
2022-08-26T03:21:26.729Z,27.47
2022-08-26T03:22:35.045Z,27.43
2022-08-26T03:23:42.764Z,27.40
2022-08-26T03:24:53.869Z,27.38
2022-08-26T03:26:01.466Z,27.35
2022-08-26T03:27:09.336Z,27.33
2022-08-26T03:28:16.715Z,27.32
2022-08-26T03:29:50.506Z,27.29
2022-08-26T03:30:59.096Z,27.25
2022-08-26T03:32:07.114Z,27.22
2022-08-26T03:33:14.640Z,27.19
2022-08-26T03:34:24.711Z,27.15
2022-08-26T03:35:45.041Z,27.11
2022-08-26T03:36:56.461Z,27.09
2022-08-26T03:38:05.171Z,27.06
2022-08-26T03:39:13.913Z,27.03
2022-08-26T03:40:22.297Z,27.01
2022-08-26T03:41:34.526Z,26.98
2022-08-26T03:42:45.358Z,26.96
2022-08-26T03:43:53.449Z,26.93
2022-08-26T03:45:02.428Z,26.91
2022-08-26T03:46:13.767Z,26.87
2022-08-26T03:47:23.351Z,26.83
2022-08-26T03:48:32.213Z,26.82
2022-08-26T03:49:43.142Z,26.81
2022-08-26T03:50:51.506Z,26.79
2022-08-26T03:51:59.696Z,26.77
2022-08-26T03:53:12.694Z,26.75
2022-08-26T03:54:24.187Z,26.73
2022-08-26T03:55:35.248Z,26.71
2022-08-26T03:56:46.431Z,26.69
2022-08-26T03:57:54.736Z,26.66
2022-08-26T03:59:03.860Z,26.63
2022-08-26T04:00:18.536Z,26.60
2022-08-26T04:01:30.468Z,26.56
2022-08-26T04:02:40.295Z,26.52
2022-08-26T04:04:00.895Z,26.49
2022-08-26T04:05:13.311Z,26.46
2022-08-26T04:06:21.048Z,26.43
2022-08-26T04:07:32.066Z,26.39
2022-08-26T04:08:41.318Z,26.34
2022-08-26T04:09:52.016Z,26.32
2022-08-26T04:11:02.642Z,26.31
2022-08-26T04:12:12.425Z,26.29
2022-08-26T04:13:22.228Z,26.27
2022-08-26T04:14:33.529Z,26.24
2022-08-26T04:15:41.568Z,26.23
2022-08-26T04:16:57.908Z,26.21
2022-08-26T04:18:06.428Z,26.19
2022-08-26T04:19:17.324Z,26.18
2022-08-26T04:20:29.348Z,26.17
2022-08-26T04:21:40.020Z,26.14
2022-08-26T04:22:51.153Z,26.10
2022-08-26T04:24:00.305Z,26.08
2022-08-26T04:25:11.733Z,26.06
2022-08-26T04:26:23.001Z,26.03
2022-08-26T04:27:31.800Z,26.01
2022-08-26T04:28:41.959Z,25.99
2022-08-26T04:29:53.578Z,25.97
2022-08-26T04:31:05.117Z,25.94
2022-08-26T04:32:13.473Z,25.92
2022-08-26T04:33:32.562Z,25.90
2022-08-26T04:34:50.634Z,25.85
2022-08-26T04:36:06.681Z,25.81
2022-08-26T04:37:14.704Z,25.79
2022-08-26T04:38:25.752Z,25.77
2022-08-26T04:39:39.417Z,25.74
2022-08-26T04:40:48.147Z,25.71
2022-08-26T04:41:57.713Z,25.68
2022-08-26T04:43:09.143Z,25.66
2022-08-26T04:44:18.777Z,25.65
2022-08-26T04:45:31.115Z,25.65
2022-08-26T04:46:43.656Z,25.64
2022-08-26T04:47:54.589Z,25.63
2022-08-26T04:49:02.035Z,25.62
2022-08-26T04:50:10.952Z,25.60
2022-08-26T04:51:18.445Z,25.58
2022-08-26T04:52:28.118Z,25.56
2022-08-26T04:53:37.253Z,25.54
2022-08-26T04:54:44.928Z,25.50
2022-08-26T04:55:55.721Z,25.45
2022-08-26T04:57:06.138Z,25.42
2022-08-26T04:58:18.291Z,25.39
2022-08-26T04:59:26.750Z,25.35
2022-08-26T05:00:38.850Z,25.32
2022-08-26T05:01:51.790Z,25.29
2022-08-26T05:03:01.914Z,25.26
2022-08-26T05:04:09.407Z,25.23
2022-08-26T05:05:17.070Z,25.22
2022-08-26T05:06:29.902Z,25.20
2022-08-26T05:07:47.350Z,25.18
2022-08-26T05:09:01.717Z,25.14
2022-08-26T05:10:11.653Z,25.10
2022-08-26T05:11:20.378Z,25.05
2022-08-26T05:12:33.559Z,24.98
2022-08-26T05:13:42.082Z,24.90
2022-08-26T05:14:50.596Z,24.83
2022-08-26T05:16:04.298Z,24.78
2022-08-26T05:17:15.576Z,24.73
2022-08-26T05:18:26.626Z,24.70
2022-08-26T05:19:37.103Z,24.64
2022-08-26T05:20:54.742Z,24.58
2022-08-26T05:22:02.938Z,24.51
2022-08-26T05:23:11.357Z,24.45
2022-08-26T05:24:20.927Z,24.39
2022-08-26T05:25:30.938Z,24.33
2022-08-26T05:26:39.396Z,24.27
2022-08-26T05:27:47.846Z,24.21
2022-08-26T05:28:57.635Z,24.15
2022-08-26T05:30:08.409Z,24.10
2022-08-26T05:31:24.897Z,24.06
2022-08-26T05:32:34.227Z,24.03
2022-08-26T05:33:45.374Z,24.02
2022-08-26T05:34:58.644Z,24.02
2022-08-26T05:36:11.638Z,24.02
2022-08-26T05:37:23.224Z,24.03
2022-08-26T05:38:34.713Z,24.05
2022-08-26T05:39:43.630Z,24.07
2022-08-26T05:41:01.599Z,24.07
2022-08-26T05:42:11.751Z,24.07
2022-08-26T05:43:20.757Z,24.07
2022-08-26T05:44:35.897Z,24.07
2022-08-26T05:46:07.781Z,24.06
2022-08-26T05:47:15.735Z,24.06
2022-08-26T05:48:24.263Z,24.06
2022-08-26T05:49:33.783Z,24.05
2022-08-26T05:50:50.621Z,24.04
2022-08-26T05:51:58.253Z,24.03
2022-08-26T05:53:06.463Z,24.01
2022-08-26T05:54:21.687Z,24.00
2022-08-26T05:55:31.943Z,23.98
2022-08-26T05:56:43.098Z,23.98
2022-08-26T05:57:53.068Z,23.97
2022-08-26T05:59:00.689Z,23.96
2022-08-26T06:00:11.717Z,23.94
2022-08-26T06:01:25.162Z,23.94
2022-08-26T06:02:34.398Z,23.92
2022-08-26T06:03:44.482Z,23.91
2022-08-26T06:04:54.745Z,23.89
2022-08-26T06:06:10.646Z,23.86
2022-08-26T06:07:18.705Z,23.84
2022-08-26T06:08:30.367Z,23.82
2022-08-26T06:09:41.789Z,23.79
2022-08-26T06:10:56.771Z,23.78
2022-08-26T06:12:04.792Z,23.78
2022-08-26T06:13:13.193Z,23.78
2022-08-26T06:14:25.481Z,23.77
2022-08-26T06:15:43.961Z,23.77
2022-08-26T06:16:55.215Z,23.76
2022-08-26T06:18:04.617Z,23.76
2022-08-26T06:19:16.706Z,23.75
2022-08-26T06:20:26.403Z,23.72
2022-08-26T06:21:37.090Z,23.70
2022-08-26T06:23:07.436Z,23.68
2022-08-26T06:24:35.831Z,23.67
2022-08-26T06:25:44.878Z,23.65
2022-08-26T06:26:54.218Z,23.64
2022-08-26T06:28:01.963Z,23.62
2022-08-26T06:29:11.998Z,23.60
2022-08-26T06:30:26.095Z,23.58
2022-08-26T06:31:40.095Z,23.56
2022-08-26T06:32:53.939Z,23.52
2022-08-26T06:34:02.051Z,23.50
2022-08-26T06:35:11.897Z,23.47
2022-08-26T06:36:24.437Z,23.44
2022-08-26T06:37:34.039Z,23.41
2022-08-26T06:38:43.366Z,23.38
2022-08-26T06:39:51.577Z,23.36
2022-08-26T06:41:02.259Z,23.34
2022-08-26T06:42:12.081Z,23.32
2022-08-26T06:43:24.972Z,23.29
2022-08-26T06:44:32.657Z,23.26
2022-08-26T06:45:41.397Z,23.22
2022-08-26T06:46:50.508Z,23.17
2022-08-26T06:47:58.452Z,23.15
2022-08-26T06:49:05.551Z,23.12
2022-08-26T06:50:12.958Z,23.11
2022-08-26T06:51:23.659Z,23.11
2022-08-26T06:52:30.840Z,23.09
2022-08-26T06:53:41.192Z,23.08
2022-08-26T06:54:48.483Z,23.06
2022-08-26T06:55:59.643Z,23.05
2022-08-26T06:57:10.283Z,23.03
2022-08-26T06:58:18.244Z,23.02
2022-08-26T06:59:27.610Z,23.00
2022-08-26T07:00:38.821Z,22.99
2022-08-26T07:01:49.968Z,22.97
2022-08-26T07:02:57.169Z,22.95
2022-08-26T07:04:10.538Z,22.93
2022-08-26T07:05:21.916Z,22.91
2022-08-26T07:06:33.357Z,22.90
2022-08-26T07:07:40.724Z,22.89
2022-08-26T07:08:54.595Z,22.88
2022-08-26T07:10:01.555Z,22.86
2022-08-26T07:11:11.816Z,22.85
2022-08-26T07:12:20.907Z,22.84
2022-08-26T07:13:31.035Z,22.83
2022-08-26T07:14:41.369Z,22.82
2022-08-26T07:16:03.164Z,22.80
2022-08-26T07:17:14.316Z,22.78
2022-08-26T07:18:24.649Z,22.77
2022-08-26T07:19:36.341Z,22.77
2022-08-26T07:20:44.853Z,22.75
2022-08-26T07:21:53.021Z,22.75
2022-08-26T07:23:04.635Z,22.73
2022-08-26T07:24:16.027Z,22.72
2022-08-26T07:25:25.060Z,22.71
2022-08-26T07:26:33.590Z,22.71
2022-08-26T07:27:46.991Z,22.69
2022-08-26T07:29:03.932Z,22.65
2022-08-26T07:30:11.863Z,22.63
2022-08-26T07:31:24.191Z,22.61
2022-08-26T07:32:31.662Z,22.60
2022-08-26T07:33:40.090Z,22.59
2022-08-26T07:34:51.124Z,22.58
2022-08-26T07:35:58.387Z,22.56
2022-08-26T07:37:08.737Z,22.55
2022-08-26T07:38:17.860Z,22.53
2022-08-26T07:39:25.336Z,22.51
2022-08-26T07:40:32.681Z,22.49
2022-08-26T07:41:42.021Z,22.48
2022-08-26T07:42:53.523Z,22.45
2022-08-26T07:44:01.366Z,22.42
2022-08-26T07:45:11.601Z,22.41
2022-08-26T07:46:27.242Z,22.40
2022-08-26T07:47:40.377Z,22.38
2022-08-26T07:48:49.872Z,22.38
2022-08-26T07:49:57.947Z,22.38
2022-08-26T07:51:05.720Z,22.37
2022-08-26T07:52:15.326Z,22.35
2022-08-26T07:53:24.162Z,22.33
2022-08-26T07:54:32.827Z,22.31
2022-08-26T07:55:40.983Z,22.28
2022-08-26T07:56:51.315Z,22.26
2022-08-26T07:57:59.089Z,22.23
2022-08-26T07:59:13.527Z,22.21
2022-08-26T08:00:23.285Z,22.19
2022-08-26T08:01:35.107Z,22.16
2022-08-26T08:02:48.405Z,22.12
2022-08-26T08:03:58.276Z,22.11
2022-08-26T08:05:08.298Z,22.08
2022-08-26T08:06:15.522Z,22.06
2022-08-26T08:07:38.727Z,22.04
2022-08-26T08:08:52.964Z,22.02
2022-08-26T08:10:09.757Z,21.99
2022-08-26T08:11:24.568Z,21.96
2022-08-26T08:12:31.833Z,21.94
2022-08-26T08:13:42.451Z,21.93
2022-08-26T08:14:50.133Z,21.94
2022-08-26T08:15:57.957Z,21.96
2022-08-26T08:17:08.548Z,21.98
2022-08-26T08:18:17.773Z,21.99
2022-08-26T08:19:36.572Z,21.99
2022-08-26T08:20:59.123Z,21.99
2022-08-26T08:22:17.194Z,21.99
2022-08-26T08:23:25.868Z,21.98
2022-08-26T08:24:35.749Z,21.99
2022-08-26T08:25:43.010Z,22.00
2022-08-26T08:26:50.266Z,22.03
2022-08-26T08:27:57.804Z,22.03
2022-08-26T08:29:04.874Z,22.03
2022-08-26T08:30:14.813Z,22.03
2022-08-26T08:33:06.391Z,21.99
2022-08-26T08:34:15.067Z,21.96
2022-08-26T08:35:27.470Z,21.94
2022-08-26T08:36:35.972Z,21.89
2022-08-26T08:37:44.068Z,21.84
2022-08-26T08:38:51.795Z,21.79
2022-08-26T08:40:00.257Z,21.76
2022-08-26T08:41:08.115Z,21.74
2022-08-26T08:42:29.266Z,21.71
2022-08-26T08:43:45.379Z,21.69
2022-08-26T08:44:53.573Z,21.66
2022-08-26T08:46:06.458Z,21.65
2022-08-26T08:47:39.698Z,21.64
2022-08-26T08:48:50.590Z,21.62
2022-08-26T08:50:01.442Z,21.61
2022-08-26T08:51:19.242Z,21.62
2022-08-26T08:52:34.162Z,21.63
2022-08-26T08:53:45.681Z,21.63
2022-08-26T08:54:53.225Z,21.64
2022-08-26T08:56:22.102Z,21.65
2022-08-26T08:57:47.121Z,21.66
2022-08-26T08:59:14.582Z,21.67
2022-08-26T09:00:30.396Z,21.67
2022-08-26T09:01:45.559Z,21.68
2022-08-26T09:03:08.568Z,21.67
2022-08-26T09:04:49.991Z,21.67
2022-08-26T09:06:00.120Z,21.66
2022-08-26T09:07:11.029Z,21.66
2022-08-26T09:08:24.424Z,21.67
2022-08-26T09:09:59.535Z,21.67
2022-08-26T09:11:07.115Z,21.65
2022-08-26T09:12:20.345Z,21.64
2022-08-26T09:13:27.740Z,21.63
2022-08-26T09:14:35.339Z,21.62
2022-08-26T09:16:03.042Z,21.61
2022-08-26T09:17:32.773Z,21.58
2022-08-26T09:19:06.840Z,21.54
2022-08-26T09:20:30.399Z,21.51
2022-08-26T09:21:38.397Z,21.47
2022-08-26T09:22:46.832Z,21.44
2022-08-26T09:23:54.782Z,21.41
2022-08-26T09:25:07.872Z,21.37
2022-08-26T09:26:48.113Z,21.33
2022-08-26T09:27:55.531Z,21.32
2022-08-26T09:29:03.898Z,21.29
2022-08-26T09:30:12.999Z,21.28
2022-08-26T09:31:33.893Z,21.26
2022-08-26T09:32:55.940Z,21.24
2022-08-26T09:34:27.080Z,21.23
2022-08-26T09:35:36.964Z,21.22
2022-08-26T09:36:47.544Z,21.19
2022-08-26T09:37:55.486Z,21.16
2022-08-26T09:39:04.766Z,21.13
2022-08-26T09:40:24.642Z,21.11
2022-08-26T09:41:38.165Z,21.06
2022-08-26T09:42:46.584Z,21.04
2022-08-26T09:44:14.633Z,21.01
2022-08-26T09:45:30.009Z,20.99
2022-08-26T09:46:37.725Z,20.97
2022-08-26T09:47:55.617Z,20.96
2022-08-26T09:49:35.518Z,20.95
2022-08-26T09:51:00.746Z,20.95
2022-08-26T09:52:25.576Z,20.94
2022-08-26T09:53:37.758Z,20.94
2022-08-26T09:54:46.109Z,20.94
2022-08-26T09:56:10.022Z,20.94
2022-08-26T09:57:27.953Z,20.92
2022-08-26T09:58:38.283Z,20.92
2022-08-26T09:59:46.070Z,20.93
2022-08-26T10:00:58.476Z,20.93
2022-08-26T10:02:31.172Z,20.94
2022-08-26T10:03:40.243Z,20.93
2022-08-26T10:04:57.000Z,20.92
2022-08-26T10:06:10.040Z,20.90
2022-08-26T10:07:20.223Z,20.91
2022-08-26T10:08:39.776Z,20.91
2022-08-26T10:09:51.564Z,20.91
2022-08-26T10:11:04.609Z,20.91
2022-08-26T10:12:19.655Z,20.90
2022-08-26T10:13:36.909Z,20.91
2022-08-26T10:14:51.009Z,20.91
2022-08-26T10:16:29.795Z,20.91
2022-08-26T10:18:03.206Z,20.91
2022-08-26T10:19:22.605Z,20.92
2022-08-26T10:20:30.927Z,20.91
2022-08-26T10:22:01.991Z,20.91
2022-08-26T10:23:19.883Z,20.91
2022-08-26T10:24:50.768Z,20.90
2022-08-26T10:26:29.164Z,20.89
2022-08-26T10:27:49.626Z,20.87
2022-08-26T10:29:25.138Z,20.85
2022-08-26T10:30:39.970Z,20.84
2022-08-26T10:31:58.759Z,20.85
2022-08-26T10:33:14.121Z,20.85
2022-08-26T10:34:24.074Z,20.86
2022-08-26T10:35:38.326Z,20.87
2022-08-26T10:37:14.362Z,20.88
2022-08-26T10:38:37.722Z,20.88
2022-08-26T10:40:09.918Z,20.88
2022-08-26T10:41:21.168Z,20.87
2022-08-26T10:42:47.778Z,20.87
2022-08-26T10:44:02.460Z,20.86
2022-08-26T10:45:26.910Z,20.84
2022-08-26T10:46:53.954Z,20.82
2022-08-26T10:48:14.875Z,20.79
2022-08-26T10:49:24.071Z,20.77
2022-08-26T10:50:42.879Z,20.76
2022-08-26T10:52:12.311Z,20.74
2022-08-26T10:53:33.201Z,20.74
2022-08-26T10:55:05.764Z,20.71
2022-08-26T10:56:37.306Z,20.68
2022-08-26T10:58:26.690Z,20.65
2022-08-26T11:00:31.427Z,20.61
2022-08-26T11:01:56.031Z,20.55
2022-08-26T11:03:35.245Z,20.51
2022-08-26T11:04:51.421Z,20.48
2022-08-26T11:06:23.975Z,20.45
2022-08-26T11:07:47.640Z,20.41
2022-08-26T11:08:58.868Z,20.38
2022-08-26T11:10:13.590Z,20.36
2022-08-26T11:11:43.661Z,20.35
2022-08-26T11:12:52.285Z,20.32
2022-08-26T11:14:11.538Z,20.30
2022-08-26T11:15:25.044Z,20.27
2022-08-26T11:16:42.897Z,20.25
2022-08-26T11:18:14.226Z,20.23
2022-08-26T11:19:59.466Z,20.22
2022-08-26T11:22:04.132Z,20.20
2022-08-26T11:23:16.369Z,20.16
2022-08-26T11:25:02.030Z,20.15
2022-08-26T11:26:36.319Z,20.14
2022-08-26T11:28:01.029Z,20.12
2022-08-26T11:29:13.401Z,20.09
2022-08-26T11:30:28.298Z,20.06
2022-08-26T11:31:41.976Z,20.02
2022-08-26T11:32:54.090Z,20.01
2022-08-26T11:34:05.802Z,19.98
2022-08-26T11:35:15.688Z,19.97
2022-08-26T11:36:34.656Z,19.95
2022-08-26T11:37:42.438Z,19.93
2022-08-26T11:38:51.040Z,19.92
2022-08-26T11:39:58.866Z,19.89
2022-08-26T11:41:12.441Z,19.87
2022-08-26T11:42:31.790Z,19.87
2022-08-26T11:43:44.670Z,19.86
2022-08-26T11:44:54.112Z,19.85
2022-08-26T11:46:09.253Z,19.83
2022-08-26T11:47:18.769Z,19.81
2022-08-26T11:48:37.707Z,19.78
2022-08-26T11:49:47.317Z,19.76
2022-08-26T11:51:25.310Z,19.75
2022-08-26T11:52:33.976Z,19.73
2022-08-26T11:53:44.260Z,19.71
2022-08-26T11:55:08.922Z,19.70
2022-08-26T11:56:36.588Z,19.69
2022-08-26T11:57:54.461Z,19.69
2022-08-26T11:59:03.067Z,19.69
2022-08-26T12:00:17.946Z,19.69
2022-08-26T12:01:40.849Z,19.70
2022-08-26T12:02:49.011Z,19.70
2022-08-26T12:04:00.164Z,19.71
2022-08-26T12:05:09.145Z,19.69
2022-08-26T12:06:45.027Z,19.68
2022-08-26T12:07:53.998Z,19.66
2022-08-26T12:09:36.677Z,19.64
2022-08-26T12:10:47.557Z,19.62
2022-08-26T12:12:18.255Z,19.61
2022-08-26T12:13:28.064Z,19.60
2022-08-26T12:14:37.947Z,19.59
2022-08-26T12:15:56.897Z,19.58
2022-08-26T12:17:19.391Z,19.58
2022-08-26T12:18:38.646Z,19.60
2022-08-26T12:19:45.798Z,19.61
2022-08-26T12:20:57.267Z,19.61
2022-08-26T12:22:26.699Z,19.62
2022-08-26T12:23:46.909Z,19.62
2022-08-26T12:24:55.369Z,19.62
2022-08-26T12:26:22.502Z,19.61
2022-08-26T12:27:31.048Z,19.61
2022-08-26T12:29:19.695Z,19.58
2022-08-26T12:30:32.441Z,19.56
2022-08-26T12:31:46.233Z,19.54
2022-08-26T12:33:21.891Z,19.54
2022-08-26T12:34:34.334Z,19.53
2022-08-26T12:35:42.343Z,19.53
2022-08-26T12:36:55.481Z,19.52
2022-08-26T12:38:03.515Z,19.52
2022-08-26T12:39:26.104Z,19.51
2022-08-26T12:40:42.835Z,19.49
2022-08-26T12:42:33.591Z,19.48
2022-08-26T12:43:43.130Z,19.46
2022-08-26T12:45:06.354Z,19.45
2022-08-26T12:46:19.377Z,19.43
2022-08-26T12:47:45.839Z,19.41
2022-08-26T12:48:54.588Z,19.39
2022-08-26T12:50:08.456Z,19.38
2022-08-26T12:51:24.468Z,19.38
2022-08-26T12:52:36.394Z,19.36
2022-08-26T12:53:45.514Z,19.35
2022-08-26T12:55:08.224Z,19.35
2022-08-26T12:56:42.320Z,19.34
2022-08-26T12:57:52.360Z,19.31
2022-08-26T12:59:25.484Z,19.30
2022-08-26T13:00:38.553Z,19.28
2022-08-26T13:01:46.254Z,19.28
2022-08-26T13:02:55.225Z,19.28
2022-08-26T13:04:04.008Z,19.28
2022-08-26T13:05:37.349Z,19.29
2022-08-26T13:06:45.568Z,19.29
2022-08-26T13:08:40.882Z,19.30
2022-08-26T13:09:52.183Z,19.31
2022-08-26T13:11:06.193Z,19.32
2022-08-26T13:12:39.069Z,19.33
2022-08-26T13:13:53.598Z,19.35
2022-08-26T13:15:01.963Z,19.36
2022-08-26T13:16:10.118Z,19.38
2022-08-26T13:17:18.613Z,19.39
2022-08-26T13:18:27.690Z,19.39
2022-08-26T13:19:37.699Z,19.39
2022-08-26T13:20:45.955Z,19.41
2022-08-26T13:21:55.449Z,19.43
2022-08-26T13:23:04.587Z,19.46
2022-08-26T13:24:18.604Z,19.48
2022-08-26T13:25:29.304Z,19.52
2022-08-26T13:26:38.308Z,19.55
2022-08-26T13:27:46.790Z,19.58
2022-08-26T13:29:01.725Z,19.61
2022-08-26T13:30:11.089Z,19.64
2022-08-26T13:31:21.721Z,19.66
2022-08-26T13:32:36.367Z,19.67
2022-08-26T13:33:46.821Z,19.69
2022-08-26T13:34:56.426Z,19.71
2022-08-26T13:36:04.399Z,19.73
2022-08-26T13:37:11.837Z,19.75
2022-08-26T13:38:32.921Z,19.78
2022-08-26T13:39:43.638Z,19.82
2022-08-26T13:40:53.837Z,19.89
2022-08-26T13:42:02.676Z,19.98
2022-08-26T13:43:09.947Z,20.09
2022-08-26T13:44:19.461Z,20.19
2022-08-26T13:45:26.953Z,20.30
2022-08-26T13:46:34.343Z,20.40
2022-08-26T13:47:43.029Z,20.51
2022-08-26T13:48:54.661Z,20.64
2022-08-26T13:50:01.897Z,20.74
2022-08-26T13:51:09.975Z,20.80
2022-08-26T13:52:18.835Z,20.84
2022-08-26T13:53:40.081Z,20.87
2022-08-26T13:54:52.298Z,20.95
2022-08-26T13:56:01.853Z,21.08
2022-08-26T13:57:09.362Z,21.26
2022-08-26T13:58:17.942Z,21.45
2022-08-26T13:59:25.776Z,21.63
2022-08-26T14:00:35.156Z,21.82
2022-08-26T14:01:43.692Z,22.02
2022-08-26T14:02:52.576Z,22.22
2022-08-26T14:04:01.995Z,22.40
2022-08-26T14:05:09.423Z,22.60
2022-08-26T14:06:17.701Z,22.80
2022-08-26T14:07:25.063Z,22.96
2022-08-26T14:08:34.081Z,23.10
2022-08-26T14:09:42.144Z,23.25
2022-08-26T14:12:02.805Z,23.56
2022-08-26T14:13:13.805Z,23.71
2022-08-26T14:14:21.388Z,23.82
2022-08-26T14:15:28.958Z,23.90
2022-08-26T14:16:59.004Z,23.99
2022-08-26T14:18:09.674Z,24.08
2022-08-26T14:19:19.418Z,24.13
2022-08-26T14:20:33.631Z,24.15
2022-08-26T14:21:47.182Z,24.14
2022-08-26T14:23:13.302Z,24.17
2022-08-26T14:24:30.895Z,24.22
2022-08-26T14:25:50.895Z,24.29
2022-08-26T14:27:02.161Z,24.37
2022-08-26T14:28:10.172Z,24.48
2022-08-26T14:29:18.508Z,24.57
2022-08-26T14:30:28.506Z,24.65
2022-08-26T14:31:39.573Z,24.72
2022-08-26T14:33:00.761Z,24.86
2022-08-26T14:34:14.082Z,25.00
2022-08-26T14:35:26.818Z,25.20
2022-08-26T14:36:37.282Z,25.44
2022-08-26T14:37:50.889Z,25.66
2022-08-26T14:39:18.412Z,25.87
2022-08-26T14:40:26.897Z,26.04
2022-08-26T14:41:36.285Z,26.15
2022-08-26T14:42:52.795Z,26.16
2022-08-26T14:44:07.974Z,26.21
2022-08-26T14:45:19.315Z,26.29
2022-08-26T14:46:30.954Z,26.30
2022-08-26T14:47:40.054Z,26.32
2022-08-26T14:48:52.708Z,26.30
2022-08-26T14:50:06.500Z,26.28
2022-08-26T14:51:16.360Z,26.31
2022-08-26T14:52:25.979Z,26.41
2022-08-26T14:53:54.322Z,26.42
2022-08-26T14:55:02.656Z,26.31
2022-08-26T14:56:12.674Z,26.24
2022-08-26T14:57:25.469Z,26.19
2022-08-26T14:58:34.751Z,26.17
2022-08-26T14:59:49.992Z,26.16
2022-08-26T15:01:04.434Z,26.15
2022-08-26T15:02:15.795Z,26.18
2022-08-26T15:03:42.529Z,26.25
2022-08-26T15:04:51.932Z,26.30
2022-08-26T15:05:59.692Z,26.20
2022-08-26T15:07:08.281Z,26.14
2022-08-26T15:08:23.696Z,26.15
2022-08-26T15:09:32.179Z,26.07
2022-08-26T15:10:43.211Z,26.07
2022-08-26T15:11:51.454Z,26.17
2022-08-26T15:12:59.178Z,26.22
2022-08-26T15:14:08.660Z,26.37
2022-08-26T15:15:31.257Z,26.40
2022-08-26T15:16:39.463Z,26.48
2022-08-26T15:17:47.484Z,26.59
2022-08-26T15:19:00.096Z,26.65
2022-08-26T15:20:11.984Z,26.80
2022-08-26T15:21:20.766Z,26.91
2022-08-26T15:22:29.451Z,27.06
2022-08-26T15:23:41.004Z,27.29
2022-08-26T15:24:56.015Z,27.49
2022-08-26T15:26:03.933Z,27.68
2022-08-26T15:27:20.233Z,27.88
2022-08-26T15:28:30.732Z,28.20
2022-08-26T15:29:41.446Z,28.52
2022-08-26T15:30:52.531Z,28.71
2022-08-26T15:32:02.975Z,28.75
2022-08-26T15:33:15.362Z,28.78
2022-08-26T15:34:28.953Z,28.89
2022-08-26T15:35:38.553Z,29.05
2022-08-26T15:36:57.864Z,29.19
2022-08-26T15:38:04.918Z,29.26
2022-08-26T15:39:15.094Z,29.33
2022-08-26T15:40:24.066Z,29.32
2022-08-26T15:41:34.725Z,29.40
2022-08-26T15:42:45.751Z,29.32
2022-08-26T15:44:03.791Z,29.29
2022-08-26T15:45:13.788Z,29.38
2022-08-26T15:46:36.360Z,29.59
2022-08-26T15:48:04.314Z,29.73
2022-08-26T15:49:17.604Z,29.82